Time;durP1;ratioP1;P1;durP2;ratioP2;P2;SDS_P1;SDS_P2;PMS_P1;PMS_P2;Temp;Humidity;BMP_temperature;BMP_pressure;BME280_temperature;BME280_humidity;BME280_pressure;Samples;Min_cycle;Max_cycle;Signal;HPM_P1;HPM_P2
2023/04/25 00:00:41;;;;;;;31.52;9.30;;;15.90;98.10;;;;;;5092659;28;20043;-75
2023/04/25 00:03:45;;;;;;;29.73;7.25;;;15.90;98.20;;;;;;5093481;28;20408;-75
2023/04/25 00:06:49;;;;;;;35.08;7.85;;;15.80;98.40;;;;;;5093326;28;20043;-75
2023/04/25 00:09:53;;;;;;;38.70;11.13;;;15.90;98.10;;;;;;5093516;28;20039;-75
2023/04/25 00:12:58;;;;;;;35.42;10.45;;;15.90;98.30;;;;;;5093264;28;20043;-75
2023/04/25 00:16:02;;;;;;;33.15;9.70;;;16.10;98.20;;;;;;5092830;28;20043;-75
2023/04/25 00:19:06;;;;;;;30.58;7.82;;;16.10;97.90;;;;;;5093158;28;20047;-75
2023/04/25 00:22:10;;;;;;;37.88;10.20;;;16.10;97.60;;;;;;5092816;28;20459;-75
2023/04/25 00:25:14;;;;;;;27.80;8.40;;;16.10;97.80;;;;;;5092743;28;20225;-75
2023/04/25 00:28:18;;;;;;;30.92;8.30;;;16.20;97.20;;;;;;5091922;28;20046;-75
2023/04/25 00:31:22;;;;;;;30.45;7.53;;;16.00;97.50;;;;;;5080361;28;20059;-75
2023/04/25 00:34:26;;;;;;;20.83;5.90;;;15.80;97.80;;;;;;5092869;28;20051;-75
2023/04/25 00:37:30;;;;;;;22.75;6.03;;;;;;;;;;5091634;28;20035;-75
2023/04/25 00:40:34;;;;;;;24.63;6.20;;;16.30;98.00;;;;;;5091633;28;20368;-75
2023/04/25 00:43:40;;;;;;;28.50;6.50;;;15.90;98.10;;;;;;5092412;28;20055;-75
2023/04/25 00:46:46;;;;;;;22.52;5.75;;;15.80;98.00;;;;;;5092701;28;20055;-75
2023/04/25 00:49:50;;;;;;;22.13;6.03;;;15.80;98.00;;;;;;5092407;28;20651;-75
2023/04/25 00:52:54;;;;;;;28.95;5.95;;;15.80;98.50;;;;;;5092595;28;20055;-75
2023/04/25 00:55:58;;;;;;;25.98;5.68;;;16.00;98.00;;;;;;5092342;28;20399;-75
2023/04/25 00:59:02;;;;;;;18.95;5.10;;;15.90;98.30;;;;;;5092330;28;20522;-75
2023/04/25 01:02:07;;;;;;;24.88;5.45;;;16.00;97.80;;;;;;5091507;28;20397;-75
2023/04/25 01:05:11;;;;;;;29.98;10.65;;;15.90;97.90;;;;;;5091324;28;20494;-75
2023/04/25 01:08:16;;;;;;;59.70;16.60;;;16.00;98.20;;;;;;5092349;28;20066;-75
2023/04/25 01:11:19;;;;;;;46.28;16.17;;;15.90;98.30;;;;;;5092211;28;20062;-75
2023/04/25 01:14:24;;;;;;;44.20;14.82;;;15.90;98.10;;;;;;5090971;28;20067;-75
2023/04/25 01:17:28;;;;;;;49.47;18.20;;;16.00;97.90;;;;;;5091101;28;20051;-75
2023/04/25 01:20:33;;;;;;;44.20;17.20;;;16.00;97.90;;;;;;5091208;28;20047;-75
2023/04/25 01:23:40;;;;;;;46.92;16.23;;;16.00;98.30;;;;;;5091577;28;20533;-75
2023/04/25 01:26:49;;;;;;;45.75;16.38;;;16.00;98.00;;;;;;5090741;28;20055;-75
2023/04/25 01:29:55;;;;;;;40.38;13.70;;;16.00;98.00;;;;;;5090947;28;20051;-75
2023/04/25 01:33:01;;;;;;;37.47;12.07;;;16.00;98.00;;;;;;5090929;28;20035;-75
2023/04/25 01:36:06;;;;;;;29.83;11.18;;;;;;;;;;5090946;28;20039;-75
2023/04/25 01:39:12;;;;;;;28.92;9.52;;;15.90;98.00;;;;;;5079190;28;20043;-75
2023/04/25 01:42:18;;;;;;;26.27;8.45;;;16.10;98.00;;;;;;5090758;28;20047;-75
2023/04/25 01:45:22;;;;;;;31.60;9.40;;;15.90;97.90;;;;;;5079039;28;20384;-75
2023/04/25 01:48:26;;;;;;;27.45;6.88;;;;;;;;;;5091374;28;20051;-75
2023/04/25 01:51:31;;;;;;;29.80;8.68;;;16.70;98.40;;;;;;5090659;28;20032;-75
2023/04/25 01:54:35;;;;;;;30.30;7.10;;;15.80;98.50;;;;;;5090566;28;20039;-75
2023/04/25 01:57:40;;;;;;;25.80;6.35;;;15.80;98.60;;;;;;5078689;28;20411;-75
2023/04/25 02:00:44;;;;;;;22.00;6.30;;;15.50;98.30;;;;;;5090673;28;20051;-76
2023/04/25 02:03:48;;;;;;;30.90;6.32;;;15.20;98.80;;;;;;5090098;28;20055;-76
2023/04/25 02:07:03;;;;;;;25.92;5.78;;;14.40;99.20;;;;;;5090396;28;20050;-75
2023/04/25 02:10:18;;;;;;;30.20;5.93;;;;;;;;;;5090087;28;20043;-75
2023/04/25 02:13:47;;;;;;;20.70;5.93;;;13.40;98.70;;;;;;5090718;28;20047;-75
2023/04/25 02:17:31;;;;;;;25.25;6.25;;;16.20;99.30;;;;;;5088485;28;20047;-75
2023/04/25 02:20:36;;;;;;;29.95;6.03;;;15.00;99.00;;;;;;5077084;28;20127;-76
2023/04/25 02:23:40;;;;;;;22.73;6.22;;;15.90;99.10;;;;;;5089959;28;20048;-76
2023/04/25 02:26:44;;;;;;;17.10;5.65;;;15.40;99.20;;;;;;5094111;28;20055;-76
2023/04/25 02:29:47;;;;;;;22.17;5.30;;;15.20;99.50;;;;;;5095017;28;20050;-75
2023/04/25 02:32:52;;;;;;;23.40;5.82;;;15.30;99.40;;;;;;5095215;28;20051;-75
2023/04/25 02:35:55;;;;;;;23.08;5.63;;;15.30;99.20;;;;;;5094932;28;20051;-75
2023/04/25 02:39:00;;;;;;;23.83;5.88;;;15.40;99.10;;;;;;5094699;28;20038;-76
2023/04/25 02:42:04;;;;;;;23.73;6.28;;;15.60;99.10;;;;;;5094206;28;20059;-76
2023/04/25 02:45:09;;;;;;;15.27;5.63;;;18.00;99.90;;;;;;5094788;28;20043;-76
2023/04/25 02:48:12;;;;;;;29.92;7.25;;;15.20;99.50;;;;;;5094390;28;20051;-75
2023/04/25 02:51:17;;;;;;;18.90;6.50;;;15.30;99.60;;;;;;5094146;28;20047;-75
2023/04/25 02:54:21;;;;;;;27.83;6.88;;;;;;;;;;5093820;28;20047;-75
2023/04/25 02:57:26;;;;;;;27.60;8.43;;;15.50;99.10;;;;;;5093422;28;20594;-75
2023/04/25 03:00:30;;;;;;;27.75;8.60;;;13.20;98.30;;;;;;5094788;28;20039;-75
2023/04/25 03:03:34;;;;;;;26.77;7.75;;;15.40;98.90;;;;;;5094230;28;20054;-75
2023/04/25 03:06:38;;;;;;;20.73;5.47;;;;;;;;;;5094202;28;20031;-75
2023/04/25 03:09:42;;;;;;;33.95;5.65;;;15.60;99.20;;;;;;5094299;28;20055;-75
2023/04/25 03:12:46;;;;;;;25.08;5.03;;;;;;;;;;5093641;28;20043;-75
2023/04/25 03:15:50;;;;;;;24.13;5.05;;;15.60;99.10;;;;;;5093603;28;20039;-75
2023/04/25 03:18:56;;;;;;;26.27;6.43;;;15.40;99.30;;;;;;5093280;28;20051;-75
2023/04/25 03:22:00;;;;;;;22.15;4.50;;;15.40;99.40;;;;;;5093207;28;20394;-75
2023/04/25 03:25:04;;;;;;;24.98;4.80;;;;;;;;;;5093192;28;20047;-75
2023/04/25 03:28:08;;;;;;;21.67;5.88;;;15.70;99.30;;;;;;5092973;28;20036;-75
2023/04/25 03:31:12;;;;;;;23.48;5.07;;;15.40;99.20;;;;;;5093229;28;20522;-75
2023/04/25 03:34:17;;;;;;;21.45;4.63;;;14.20;98.80;;;;;;5093114;28;20039;-75
2023/04/25 03:37:21;;;;;;;27.35;4.57;;;15.40;99.20;;;;;;5093608;28;20043;-75
2023/04/25 03:40:25;;;;;;;27.73;4.10;;;15.30;99.60;;;;;;5092898;28;20059;-75
2023/04/25 03:43:45;;;;;;;18.73;4.78;;;18.20;99.90;;;;;;5092814;28;20063;-75
2023/04/25 03:46:51;;;;;;;18.88;4.38;;;15.40;99.50;;;;;;5080783;28;20039;-75
2023/04/25 03:49:55;;;;;;;20.17;4.00;;;15.30;99.60;;;;;;5093016;28;20526;-75
2023/04/25 03:53:00;;;;;;;26.23;4.57;;;14.80;99.30;;;;;;5092747;28;20047;-75
2023/04/25 03:56:07;;;;;;;22.15;4.60;;;15.50;99.90;;;;;;5092913;28;20396;-75
2023/04/25 03:59:13;;;;;;;23.92;4.68;;;15.00;99.90;;;;;;5092660;28;20047;-75
2023/04/25 04:02:17;;;;;;;24.30;4.60;;;16.80;99.90;;;;;;5092683;28;20548;-76
2023/04/25 04:05:23;;;;;;;23.60;5.10;;;15.00;99.90;;;;;;5092878;28;20506;-75
2023/04/25 04:08:32;;;;;;;33.70;5.60;;;16.20;99.90;;;;;;5092965;28;20043;-75
2023/04/25 04:11:38;;;;;;;30.50;5.55;;;13.70;99.70;;;;;;5092629;28;20106;-75
2023/04/25 04:14:42;;;;;;;28.80;5.45;;;16.80;99.90;;;;;;5092547;28;20448;-75
2023/04/25 04:17:48;;;;;;;19.88;4.18;;;13.40;99.90;;;;;;5080745;28;20051;-75
2023/04/25 04:20:52;;;;;;;31.90;5.70;;;16.10;99.90;;;;;;5092643;28;20042;-75
2023/04/25 04:23:57;;;;;;;23.48;5.07;;;;;;;;;;5092447;28;20054;-75
2023/04/25 04:27:03;;;;;;;22.75;4.70;;;12.10;99.90;;;;;;5093282;28;20400;-75
2023/04/25 04:30:24;;;;;;;36.03;7.75;;;13.20;99.90;;;;;;5092471;28;20047;-75
2023/04/25 04:33:36;;;;;;;41.65;7.32;;;;;;;;;;5092123;28;20058;-75
2023/04/25 04:36:42;;;;;;;29.58;6.82;;;14.90;99.90;;;;;;5091901;28;20041;-75
2023/04/25 04:39:46;;;;;;;30.02;6.40;;;15.00;99.90;;;;;;5092161;28;20043;-75
2023/04/25 04:43:00;;;;;;;29.05;5.75;;;;;;;;;;5091985;28;20427;-75
2023/04/25 04:46:24;;;;;;;20.98;5.07;;;13.70;99.90;;;;;;5092610;28;20498;-75
2023/04/25 04:49:48;;;;;;;28.83;5.75;;;15.10;99.90;;;;;;5092125;28;20498;-75
2023/04/25 04:53:17;;;;;;;23.38;4.85;;;15.50;99.90;;;;;;5083825;28;20047;-75
2023/04/25 04:56:33;;;;;;;27.63;5.28;;;15.30;99.90;;;;;;5091727;28;20051;-75
2023/04/25 04:59:52;;;;;;;19.45;5.35;;;15.20;99.90;;;;;;5091255;28;20039;-75
2023/04/25 05:03:16;;;;;;;25.02;6.07;;;14.90;99.90;;;;;;5092275;28;20059;-75
2023/04/25 05:06:38;;;;;;;25.08;5.75;;;15.10;99.90;;;;;;5092216;28;20058;-74
2023/04/25 05:09:54;;;;;;;33.65;5.90;;;16.50;99.90;;;;;;5091449;28;20043;-75
2023/04/25 05:13:17;;;;;;;25.98;5.30;;;15.10;99.90;;;;;;5092147;28;20043;-75
2023/04/25 05:16:42;;;;;;;25.00;5.28;;;13.30;99.90;;;;;;5091936;28;20046;-75
2023/04/25 05:20:11;;;;;;;22.10;5.25;;;15.40;99.90;;;;;;5090928;28;20043;-75
2023/04/25 05:23:33;;;;;;;19.85;4.88;;;15.30;99.90;;;;;;5091764;28;20054;-75
2023/04/25 05:26:43;;;;;;;25.83;6.40;;;15.40;99.90;;;;;;5091558;28;20055;-75
2023/04/25 05:30:26;;;;;;;22.15;4.78;;;14.80;99.90;;;;;;5089537;28;20047;-75
2023/04/25 05:33:38;;;;;;;23.20;4.18;;;15.50;99.90;;;;;;5089572;28;20051;-75
2023/04/25 05:36:42;;;;;;;23.38;4.20;;;15.50;99.90;;;;;;5092447;28;20035;-75
2023/04/25 05:39:46;;;;;;;24.52;4.90;;;15.50;99.80;;;;;;5092036;28;20043;-75
2023/04/25 05:43:16;;;;;;;23.27;4.55;;;15.50;99.50;;;;;;5091785;28;20055;-75
2023/04/25 05:46:26;;;;;;;27.92;5.07;;;15.70;99.50;;;;;;5090777;28;20039;-75
2023/04/25 05:50:08;;;;;;;33.53;5.38;;;15.80;99.50;;;;;;5108699;28;20629;-74
2023/04/25 05:53:27;;;;;;;23.85;5.68;;;15.90;99.60;;;;;;5090471;28;20051;-75
2023/04/25 05:56:37;;;;;;;26.58;6.20;;;15.90;99.90;;;;;;5090331;28;20043;-75
2023/04/25 05:59:41;;;;;;;25.63;5.70;;;15.90;99.90;;;;;;5089641;28;20071;-75
2023/04/25 06:02:45;;;;;;;25.88;5.10;;;16.00;99.90;;;;;;5090386;28;20047;-75
2023/04/25 06:05:51;;;;;;;28.45;5.75;;;15.90;99.90;;;;;;5090433;28;20047;-75
2023/04/25 06:08:57;;;;;;;25.83;6.85;;;15.90;99.90;;;;;;5090230;28;20035;-74
2023/04/25 06:12:01;;;;;;;27.35;7.43;;;16.00;99.90;;;;;;5090463;28;20047;-75
2023/04/25 06:15:07;;;;;;;37.85;8.68;;;16.00;99.70;;;;;;5090377;28;20043;-75
2023/04/25 06:18:11;;;;;;;24.50;7.95;;;16.10;99.80;;;;;;5090292;28;20109;-75
2023/04/25 06:21:15;;;;;;;33.47;8.45;;;16.10;99.30;;;;;;5091101;28;20043;-75
2023/04/25 06:24:19;;;;;;;33.25;9.90;;;16.20;99.10;;;;;;5089952;28;20055;-75
2023/04/25 06:27:23;;;;;;;25.48;8.73;;;16.20;99.10;;;;;;5078192;28;20047;-75
2023/04/25 06:30:27;;;;;;;32.78;7.40;;;16.30;99.20;;;;;;5090014;28;20043;-75
2023/04/25 06:33:36;;;;;;;23.95;6.18;;;16.30;99.20;;;;;;5090001;28;20632;-75
2023/04/25 06:36:41;;;;;;;19.08;4.57;;;16.40;99.20;;;;;;5078823;28;20051;-75
2023/04/25 06:39:47;;;;;;;23.17;4.47;;;16.50;99.10;;;;;;5078600;28;20047;-75
2023/04/25 06:42:52;;;;;;;17.10;3.47;;;16.70;99.00;;;;;;5089894;28;20050;-75
2023/04/25 06:46:09;;;;;;;15.50;2.88;;;16.80;98.70;;;;;;5089873;28;20047;-75
2023/04/25 06:49:19;;;;;;;26.55;3.50;;;16.90;98.10;;;;;;5090155;28;20043;-75
2023/04/25 06:52:24;;;;;;;14.85;3.08;;;17.30;97.80;;;;;;5089904;28;20395;-74
2023/04/25 06:55:30;;;;;;;22.80;3.63;;;17.40;97.10;;;;;;5089823;28;20043;-75
2023/04/25 06:58:57;;;;;;;17.40;3.17;;;17.50;96.80;;;;;;5096357;28;20039;-74
2023/04/25 07:02:08;;;;;;;22.17;3.22;;;17.50;96.70;;;;;;5089811;28;20502;-74
2023/04/25 07:05:12;;;;;;;15.65;2.83;;;17.50;96.60;;;;;;5089963;28;20047;-75
2023/04/25 07:08:16;;;;;;;16.05;2.65;;;17.60;96.60;;;;;;5090714;28;20390;-75
2023/04/25 07:11:20;;;;;;;17.02;2.78;;;17.60;96.50;;;;;;5091782;28;20505;-74
2023/04/25 07:14:25;;;;;;;18.27;3.08;;;17.60;96.40;;;;;;5094201;28;20039;-74
2023/04/25 07:17:29;;;;;;;16.35;3.05;;;17.50;96.30;;;;;;5093236;28;20039;-76
2023/04/25 07:20:34;;;;;;;12.52;2.42;;;17.50;96.30;;;;;;5081933;28;20039;-75
2023/04/25 07:23:40;;;;;;;19.90;3.83;;;17.50;96.30;;;;;;5093042;28;20076;-76
2023/04/25 07:26:49;;;;;;;25.30;3.95;;;17.50;96.20;;;;;;5092986;28;20051;-76
2023/04/25 07:30:07;;;;;;;21.48;3.20;;;17.60;96.20;;;;;;5093247;28;20047;-76
2023/04/25 07:33:11;;;;;;;19.42;3.20;;;17.70;96.20;;;;;;5092969;28;20047;-76
2023/04/25 07:36:15;;;;;;;17.75;2.70;;;17.70;96.40;;;;;;5092944;28;20505;-76
2023/04/25 07:39:19;;;;;;;15.88;3.05;;;17.70;96.70;;;;;;5092805;28;20601;-76
2023/04/25 07:42:24;;;;;;;23.75;3.90;;;17.80;97.20;;;;;;5092834;28;20478;-76
2023/04/25 07:45:28;;;;;;;26.00;5.05;;;18.50;97.30;;;;;;5092907;28;20415;-76
2023/04/25 07:48:33;;;;;;;27.65;4.88;;;19.30;96.20;;;;;;5092694;28;20047;-76
2023/04/25 07:51:37;;;;;;;23.55;3.63;;;19.60;95.30;;;;;;5092940;28;20051;-76
2023/04/25 07:54:47;;;;;;;23.52;3.78;;;20.10;94.80;;;;;;5092567;28;20035;-76
2023/04/25 07:57:55;;;;;;;23.77;3.88;;;20.30;93.30;;;;;;5092617;28;20051;-77
2023/04/25 08:00:59;;;;;;;18.88;3.25;;;20.20;93.30;;;;;;5093389;28;20555;-76
2023/04/25 08:04:23;;;;;;;20.52;3.60;;;20.00;93.30;;;;;;5093162;28;20055;-76
2023/04/25 08:07:32;;;;;;;16.83;3.80;;;19.90;93.10;;;;;;5092305;28;20046;-76
2023/04/25 08:10:40;;;;;;;15.35;3.40;;;19.70;92.90;;;;;;5092224;28;20067;-76
2023/04/25 08:13:44;;;;;;;15.50;3.50;;;19.70;92.90;;;;;;5092313;28;20043;-77
2023/04/25 08:16:50;;;;;;;21.55;3.40;;;20.20;92.50;;;;;;5092288;28;20047;-76
2023/04/25 08:19:55;;;;;;;19.50;3.28;;;20.30;92.20;;;;;;5080731;28;20499;-77
2023/04/25 08:23:04;;;;;;;21.27;3.70;;;20.40;92.30;;;;;;5091038;28;20507;-76
2023/04/25 08:26:24;;;;;;;15.23;3.75;;;20.20;92.00;;;;;;5091685;28;20047;-78
2023/04/25 08:29:28;;;;;;;18.05;3.80;;;20.50;91.70;;;;;;5092026;28;20043;-75
2023/04/25 08:32:33;;;;;;;22.70;2.85;;;20.70;90.70;;;;;;5091777;28;20055;-76
2023/04/25 08:35:54;;;;;;;18.80;4.15;;;20.80;91.00;;;;;;5091673;28;20047;-76
2023/04/25 08:38:58;;;;;;;15.80;3.95;;;20.80;91.90;;;;;;5092502;28;20047;-76
2023/04/25 08:42:10;;;;;;;22.35;3.65;;;21.20;91.90;;;;;;5091690;28;20039;-76
2023/04/25 08:45:15;;;;;;;18.90;3.03;;;21.50;90.70;;;;;;5091718;28;20070;-76
2023/04/25 08:48:22;;;;;;;19.48;3.53;;;21.50;89.50;;;;;;5091323;28;20035;-76
2023/04/25 08:51:30;;;;;;;15.45;3.33;;;21.50;88.10;;;;;;5091742;28;20418;-77
2023/04/25 08:54:35;;;;;;;33.20;9.63;;;21.50;90.00;;;;;;5091410;28;20035;-77
2023/04/25 08:57:42;;;;;;;25.40;8.10;;;21.20;90.30;;;;;;5091362;28;20043;-76
2023/04/25 09:00:48;;;;;;;17.88;3.50;;;21.00;90.90;;;;;;5091505;28;20051;-75
2023/04/25 09:03:53;;;;;;;19.63;3.55;;;20.80;90.60;;;;;;5091026;28;20663;-76
2023/04/25 09:06:58;;;;;;;20.85;3.67;;;20.70;90.90;;;;;;5091138;28;20043;-77
2023/04/25 09:10:03;;;;;;;23.92;4.03;;;20.50;90.70;;;;;;5091339;28;20047;-76
2023/04/25 09:13:14;;;;;;;19.30;3.97;;;20.60;91.10;;;;;;5091275;28;20051;-77
2023/04/25 09:16:57;;;;;;;15.65;4.20;;;20.80;91.20;;;;;;5091395;28;20482;-75
2023/04/25 09:20:30;;;;;;;25.02;4.25;;;21.20;91.30;;;;;;5092026;28;20043;-76
2023/04/25 09:23:42;;;;;;;18.02;3.70;;;21.50;90.50;;;;;;5090862;28;20055;-77
2023/04/25 09:26:47;;;;;;;20.42;3.85;;;21.80;90.50;;;;;;5090563;28;20075;-77
2023/04/25 09:29:59;;;;;;;21.85;3.90;;;21.90;89.50;;;;;;5090606;28;20506;-78
2023/04/25 09:33:06;;;;;;;21.58;4.30;;;22.10;89.40;;;;;;5090657;28;20047;-79
2023/04/25 09:36:13;;;;;;;12.40;3.13;;;22.20;89.30;;;;;;5090824;28;20039;-76
2023/04/25 09:39:39;;;;;;;16.90;3.40;;;22.20;88.40;;;;;;5090891;28;20043;-76
2023/04/25 09:42:50;;;;;;;17.77;3.58;;;22.30;87.60;;;;;;5090469;28;20498;-77
2023/04/25 09:45:58;;;;;;;25.27;5.95;;;22.40;88.30;;;;;;5091105;28;20059;-76
2023/04/25 09:49:07;;;;;;;24.25;3.85;;;22.40;87.90;;;;;;5090339;28;20047;-77
2023/04/25 09:52:23;;;;;;;26.83;3.50;;;22.50;87.50;;;;;;5090111;28;20502;-75
2023/04/25 09:55:42;;;;;;;23.40;4.53;;;22.40;86.70;;;;;;5090563;28;20051;-76
2023/04/25 09:58:47;;;;;;;19.20;4.10;;;22.10;87.90;;;;;;5078986;28;20047;-76
2023/04/25 10:01:54;;;;;;;18.17;3.53;;;22.10;88.40;;;;;;5090383;28;20470;-76
2023/04/25 10:05:08;;;;;;;16.10;2.95;;;22.20;88.60;;;;;;5090203;28;20046;-77
2023/04/25 10:08:17;;;;;;;32.93;5.57;;;22.40;87.70;;;;;;5091196;28;20387;-77
2023/04/25 10:11:24;;;;;;;24.23;3.83;;;22.50;86.30;;;;;;5091007;28;20277;-77
2023/04/25 10:14:31;;;;;;;21.98;3.92;;;22.50;84.60;;;;;;5091413;28;20043;-77
2023/04/25 10:17:36;;;;;;;16.25;3.38;;;22.40;86.00;;;;;;5090713;28;20039;-77
2023/04/25 10:20:40;;;;;;;19.45;3.80;;;22.30;85.50;;;;;;5091286;28;20667;-77
2023/04/25 10:23:45;;;;;;;18.67;4.13;;;22.30;86.70;;;;;;5091964;28;20621;-78
2023/04/25 10:26:50;;;;;;;23.05;3.63;;;22.40;86.50;;;;;;5091394;28;20059;-78
2023/04/25 10:30:11;;;;;;;26.13;4.30;;;22.60;85.10;;;;;;5091951;28;20043;-76
2023/04/25 10:33:20;;;;;;;19.08;3.55;;;22.60;85.10;;;;;;5091529;28;20039;-77
2023/04/25 10:36:28;;;;;;;21.45;3.50;;;22.60;84.40;;;;;;5090530;28;20051;-77
2023/04/25 10:39:32;;;;;;;21.40;3.80;;;22.60;84.30;;;;;;5091130;28;20110;-76
2023/04/25 10:42:36;;;;;;;21.65;3.88;;;22.60;84.40;;;;;;5091167;28;20490;-77
2023/04/25 10:45:52;;;;;;;20.50;4.43;;;22.50;85.30;;;;;;5091580;28;20047;-75
2023/04/25 10:48:58;;;;;;;17.13;3.83;;;22.40;85.50;;;;;;5094271;28;20055;-76
2023/04/25 10:52:23;;;;;;;21.80;3.67;;;22.30;85.00;;;;;;5094795;28;20047;-76
2023/04/25 10:55:51;;;;;;;30.52;5.65;;;22.40;84.70;;;;;;5094503;28;20114;-76
2023/04/25 10:59:15;;;;;;;16.13;2.97;;;22.30;84.50;;;;;;5094699;28;20047;-76
2023/04/25 11:02:18;;;;;;;25.83;4.25;;;22.10;83.30;;;;;;5094636;28;20526;-75
2023/04/25 11:05:32;;;;;;;14.75;3.58;;;22.10;85.60;;;;;;5094134;28;20513;-76
2023/04/25 11:08:49;;;;;;;17.27;3.70;;;22.20;84.90;;;;;;5094182;28;20039;-76
2023/04/25 11:11:58;;;;;;;16.80;4.32;;;22.20;84.90;;;;;;5094099;28;20043;-77
2023/04/25 11:15:04;;;;;;;23.70;3.67;;;22.00;83.90;;;;;;5094292;28;20502;-77
2023/04/25 11:18:08;;;;;;;19.48;4.18;;;21.90;84.80;;;;;;5094482;28;20055;-77
2023/04/25 11:21:13;;;;;;;25.17;4.28;;;21.70;85.60;;;;;;5094472;28;20498;-77
2023/04/25 11:24:17;;;;;;;27.02;4.65;;;21.80;86.10;;;;;;5094032;28;20059;-78
2023/04/25 11:27:22;;;;;;;25.30;4.35;;;21.70;85.90;;;;;;5094071;28;20055;-77
2023/04/25 11:30:26;;;;;;;30.17;5.40;;;21.60;87.00;;;;;;5094369;28;20526;-77
2023/04/25 11:33:31;;;;;;;22.55;4.05;;;21.50;87.40;;;;;;5093859;28;20047;-76
2023/04/25 11:36:38;;;;;;;24.30;5.07;;;21.50;88.00;;;;;;5094101;28;20090;-76
2023/04/25 11:39:48;;;;;;;23.02;5.47;;;21.50;87.50;;;;;;5093716;28;20395;-77
2023/04/25 11:42:52;;;;;;;20.73;4.30;;;21.60;87.20;;;;;;5093840;28;20110;-77
2023/04/25 11:45:56;;;;;;;24.92;4.18;;;21.60;86.60;;;;;;5093747;28;20285;-76
2023/04/25 11:49:02;;;;;;;25.52;4.35;;;21.80;87.10;;;;;;5093583;28;20383;-77
2023/04/25 11:52:07;;;;;;;23.95;4.63;;;21.80;86.90;;;;;;5093795;28;20051;-76
2023/04/25 11:55:19;;;;;;;22.73;5.45;;;21.80;86.90;;;;;;5093918;28;20047;-76
2023/04/25 11:58:24;;;;;;;24.75;4.53;;;21.70;87.60;;;;;;5093725;28;20564;-76
2023/04/25 12:01:33;;;;;;;20.70;4.22;;;21.70;87.70;;;;;;5093558;28;20051;-77
2023/04/25 12:04:41;;;;;;;15.70;3.90;;;21.80;88.00;;;;;;5093301;28;20051;-76
2023/04/25 12:07:45;;;;;;;24.88;4.90;;;21.90;88.00;;;;;;5092935;28;20051;-75
2023/04/25 12:10:48;;;;;;;23.98;4.63;;;21.90;88.40;;;;;;5092874;28;20483;-76
2023/04/25 12:13:53;;;;;;;23.52;5.13;;;21.70;88.80;;;;;;5093048;28;20047;-77
2023/04/25 12:16:59;;;;;;;24.05;3.83;;;21.60;89.00;;;;;;5092768;28;20047;-75
2023/04/25 12:20:12;;;;;;;23.88;4.63;;;21.50;88.30;;;;;;5092258;28;20047;-76
2023/04/25 12:23:16;;;;;;;28.58;3.92;;;21.40;88.70;;;;;;5092319;28;20507;-77
2023/04/25 12:26:20;;;;;;;29.02;5.28;;;21.20;89.00;;;;;;5091859;28;20055;-76
2023/04/25 12:29:25;;;;;;;28.13;4.90;;;21.10;90.10;;;;;;5092794;28;20035;-75
2023/04/25 12:32:29;;;;;;;23.35;4.57;;;21.10;90.10;;;;;;5092505;28;20050;-75
2023/04/25 12:35:33;;;;;;;21.05;5.15;;;21.00;89.70;;;;;;5092500;28;20043;-76
2023/04/25 12:38:41;;;;;;;21.23;3.95;;;21.00;90.10;;;;;;5092644;28;20055;-76
2023/04/25 12:41:46;;;;;;;19.95;4.45;;;21.00;89.90;;;;;;5092655;28;20047;-76
2023/04/25 12:44:50;;;;;;;16.63;4.68;;;21.00;89.50;;;;;;5092397;28;20051;-75
2023/04/25 12:47:54;;;;;;;21.67;4.32;;;21.00;90.10;;;;;;5092507;28;20044;-76
2023/04/25 12:50:58;;;;;;;25.52;5.88;;;20.90;90.50;;;;;;5091490;28;20055;-76
2023/04/25 12:54:04;;;;;;;30.27;4.88;;;20.90;90.60;;;;;;5092518;28;20047;-75
2023/04/25 12:57:08;;;;;;;34.40;5.45;;;20.90;90.70;;;;;;5092087;28;20035;-75
2023/04/25 13:00:14;;;;;;;18.50;4.60;;;20.90;91.10;;;;;;5092201;28;20043;-75
2023/04/25 13:03:18;;;;;;;30.45;4.80;;;21.00;91.10;;;;;;5092030;28;20027;-76
2023/04/25 13:06:22;;;;;;;29.33;4.93;;;21.00;91.20;;;;;;5091732;28;20522;-76
2023/04/25 13:09:26;;;;;;;25.00;5.65;;;20.90;91.60;;;;;;5090771;28;20051;-76
2023/04/25 13:12:31;;;;;;;23.15;4.60;;;20.90;91.50;;;;;;5092003;28;20047;-76
2023/04/25 13:15:35;;;;;;;24.67;4.72;;;20.90;91.10;;;;;;5091728;28;20387;-77
2023/04/25 13:18:39;;;;;;;25.17;5.13;;;20.90;91.30;;;;;;5091776;28;20407;-76
2023/04/25 13:21:43;;;;;;;25.45;4.30;;;20.90;91.40;;;;;;5091868;28;20043;-76
2023/04/25 13:24:47;;;;;;;18.38;4.25;;;20.90;90.60;;;;;;5091739;28;20051;-76
2023/04/25 13:27:51;;;;;;;19.95;3.55;;;20.80;90.60;;;;;;5091386;28;20039;-77
2023/04/25 13:30:55;;;;;;;18.23;4.55;;;20.70;90.70;;;;;;5091271;28;20051;-76
2023/04/25 13:33:59;;;;;;;25.55;5.03;;;20.70;91.00;;;;;;5079953;28;20064;-76
2023/04/25 13:37:03;;;;;;;16.67;5.28;;;20.70;91.50;;;;;;5091952;28;20388;-76
2023/04/25 13:40:10;;;;;;;24.45;4.30;;;20.70;91.70;;;;;;5091505;28;20406;-76
2023/04/25 13:43:14;;;;;;;22.83;4.43;;;20.80;91.90;;;;;;5091482;28;20501;-76
2023/04/25 13:46:18;;;;;;;33.35;5.72;;;20.80;91.90;;;;;;5091447;28;20067;-76
2023/04/25 13:49:22;;;;;;;29.40;4.70;;;20.80;91.40;;;;;;5090388;28;20039;-76
2023/04/25 13:52:27;;;;;;;29.95;5.10;;;20.80;91.50;;;;;;5090481;28;20415;-77
2023/04/25 13:55:30;;;;;;;20.75;4.22;;;20.70;91.70;;;;;;5090329;28;20043;-76
2023/04/25 13:58:35;;;;;;;24.75;3.90;;;20.70;91.60;;;;;;5091226;28;20051;-76
2023/04/25 14:01:40;;;;;;;22.70;4.75;;;20.70;91.60;;;;;;5091403;28;20051;-76
2023/04/25 14:04:44;;;;;;;21.02;4.50;;;20.70;91.60;;;;;;5091189;28;20047;-76
2023/04/25 14:07:48;;;;;;;20.95;4.43;;;20.60;91.70;;;;;;5090878;28;20039;-75
2023/04/25 14:10:52;;;;;;;23.40;4.07;;;20.60;91.90;;;;;;5091090;28;20047;-76
2023/04/25 14:13:56;;;;;;;20.45;4.32;;;20.60;91.70;;;;;;5091285;28;20046;-76
2023/04/25 14:17:00;;;;;;;28.10;4.30;;;20.60;91.60;;;;;;5090998;28;20039;-77
2023/04/25 14:20:05;;;;;;;21.15;4.05;;;20.70;91.20;;;;;;5090989;28;20047;-75
2023/04/25 14:23:09;;;;;;;23.80;3.90;;;20.70;91.80;;;;;;5095155;28;20067;-75
2023/04/25 14:26:13;;;;;;;19.30;3.75;;;20.60;92.10;;;;;;5093757;28;20051;-75
2023/04/25 14:29:17;;;;;;;22.50;3.70;;;20.70;91.90;;;;;;5095149;28;20067;-75
2023/04/25 14:32:21;;;;;;;18.33;4.03;;;20.70;91.60;;;;;;5094702;28;20051;-76
2023/04/25 14:35:25;;;;;;;22.15;4.57;;;20.70;91.40;;;;;;5093832;28;20404;-75
2023/04/25 14:38:29;;;;;;;15.98;3.72;;;20.70;91.60;;;;;;5094966;28;20509;-75
2023/04/25 14:41:32;;;;;;;24.23;4.10;;;20.70;91.40;;;;;;5094499;28;20046;-76
2023/04/25 14:44:37;;;;;;;20.35;4.15;;;20.70;91.80;;;;;;5094562;28;20055;-75
2023/04/25 14:47:41;;;;;;;28.77;4.60;;;20.60;92.20;;;;;;5094512;28;20043;-76
2023/04/25 14:50:46;;;;;;;29.30;4.32;;;20.60;92.20;;;;;;5094645;28;20047;-76
2023/04/25 14:53:50;;;;;;;27.05;4.70;;;20.40;92.20;;;;;;5094685;28;20047;-75
2023/04/25 14:56:54;;;;;;;16.55;4.00;;;20.30;92.50;;;;;;5094577;28;20051;-76
2023/04/25 14:59:58;;;;;;;21.98;4.30;;;20.30;92.60;;;;;;5094722;28;20450;-77
2023/04/25 15:03:03;;;;;;;23.90;4.68;;;20.30;92.50;;;;;;5094694;28;20540;-77
2023/04/25 15:06:07;;;;;;;24.65;4.43;;;20.40;92.50;;;;;;5094502;28;20059;-78
2023/04/25 15:09:11;;;;;;;30.73;4.57;;;20.30;92.30;;;;;;5094189;28;20032;-76
2023/04/25 15:12:15;;;;;;;24.55;4.43;;;20.20;92.60;;;;;;5093615;28;20047;-76
2023/04/25 15:15:19;;;;;;;23.75;4.82;;;20.10;92.50;;;;;;5094044;28;20043;-76
2023/04/25 15:18:23;;;;;;;25.38;4.30;;;20.10;92.70;;;;;;5094085;28;20043;-76
2023/04/25 15:21:28;;;;;;;16.25;4.05;;;20.10;92.80;;;;;;5094019;28;20387;-76
2023/04/25 15:24:32;;;;;;;23.58;4.65;;;20.10;92.90;;;;;;5093954;28;20047;-77
2023/04/25 15:27:44;;;;;;;26.30;4.72;;;20.20;92.60;;;;;;5093779;28;20494;-76
2023/04/25 15:30:48;;;;;;;21.23;4.18;;;20.20;92.40;;;;;;5093419;28;20051;-76
2023/04/25 15:33:52;;;;;;;24.42;4.07;;;20.10;92.40;;;;;;5093115;28;20055;-76
2023/04/25 15:36:57;;;;;;;25.90;5.00;;;20.20;92.60;;;;;;5093688;28;20043;-75
2023/04/25 15:40:10;;;;;;;29.65;4.25;;;20.10;93.00;;;;;;5092847;28;20051;-76
2023/04/25 15:43:16;;;;;;;32.45;5.85;;;20.00;92.80;;;;;;5093463;28;20039;-75
2023/04/25 15:46:22;;;;;;;25.05;5.22;;;20.00;93.00;;;;;;5092640;28;20051;-76
2023/04/25 15:49:27;;;;;;;30.92;4.88;;;20.00;93.40;;;;;;5093544;28;20035;-76
2023/04/25 15:52:32;;;;;;;29.95;5.00;;;19.90;93.60;;;;;;5093336;28;20062;-75
2023/04/25 15:55:36;;;;;;;26.38;4.25;;;19.90;93.70;;;;;;5093279;28;20042;-76
2023/04/25 15:58:40;;;;;;;22.45;3.95;;;19.90;93.70;;;;;;5093372;28;20502;-75
2023/04/25 16:01:44;;;;;;;25.55;4.60;;;19.80;93.90;;;;;;5093602;28;20078;-76
2023/04/25 16:04:49;;;;;;;23.83;4.57;;;19.80;93.90;;;;;;5093560;28;20399;-75
2023/04/25 16:07:52;;;;;;;23.70;4.35;;;19.70;93.90;;;;;;5093927;28;20039;-76